createdAt,value
2023-01-13T14:10:40.560Z,38.38
2023-01-13T14:13:31.913Z,37.67
2023-01-13T14:16:02.468Z,28.85
2023-01-13T14:18:33.193Z,29.90
2023-01-13T14:21:01.037Z,35.72
2023-01-13T14:23:30.577Z,32.92
2023-01-13T14:26:15.020Z,34.05
2023-01-13T14:28:42.466Z,37.47
2023-01-13T14:31:10.728Z,37.10
2023-01-13T14:33:41.379Z,43.03
2023-01-13T14:36:21.668Z,39.10
2023-01-13T14:39:05.280Z,35.85
2023-01-13T14:41:36.926Z,34.97
2023-01-13T14:44:29.398Z,26.75
2023-01-13T14:46:58.675Z,33.53
2023-01-13T14:49:36.021Z,34.05
2023-01-13T14:52:09.934Z,35.45
2023-01-13T14:54:51.724Z,33.58
2023-01-13T14:57:27.770Z,35.08
2023-01-13T15:00:16.412Z,42.60
2023-01-13T15:02:58.108Z,39.97
2023-01-13T15:05:27.595Z,33.95
2023-01-13T15:08:00.324Z,33.97
2023-01-13T15:10:45.722Z,35.35
2023-01-13T15:13:23.378Z,36.13
2023-01-13T15:15:56.120Z,31.73
2023-01-13T15:18:23.065Z,39.05
2023-01-13T15:20:52.449Z,28.90
2023-01-13T15:23:20.284Z,32.05
2023-01-13T15:25:47.859Z,35.65
2023-01-13T15:28:21.043Z,30.38
2023-01-13T15:30:49.446Z,23.33
2023-01-13T15:33:17.150Z,27.75
2023-01-13T15:35:47.742Z,31.27
2023-01-13T15:38:17.401Z,29.90
2023-01-13T15:40:44.867Z,31.90
2023-01-13T15:43:35.579Z,36.35
2023-01-13T15:46:23.083Z,42.33
2023-01-13T15:48:54.863Z,29.73
2023-01-13T15:51:21.664Z,40.40
2023-01-13T15:53:48.321Z,24.08
2023-01-13T15:56:24.460Z,23.90
2023-01-13T15:58:51.064Z,26.85
2023-01-13T16:01:17.887Z,32.53
2023-01-13T16:03:44.551Z,40.45
2023-01-13T16:06:24.622Z,32.28
2023-01-13T16:08:51.412Z,32.47
2023-01-13T16:11:18.087Z,23.40
2023-01-13T16:13:44.860Z,25.92
2023-01-13T16:16:24.482Z,33.20
2023-01-13T16:18:52.654Z,36.40
2023-01-13T16:21:20.556Z,40.33
2023-01-13T16:23:49.176Z,33.55
2023-01-13T16:26:24.852Z,39.40
2023-01-13T16:28:53.153Z,27.55
2023-01-13T16:31:32.246Z,36.50
2023-01-13T16:34:01.034Z,39.08
2023-01-13T16:36:29.400Z,56.88
2023-01-13T16:41:25.120Z,41.90
2023-01-13T16:43:52.323Z,49.90
2023-01-13T16:46:27.206Z,52.85
2023-01-13T16:48:55.877Z,40.17
2023-01-13T16:51:24.265Z,47.90
2023-01-13T16:53:51.881Z,48.92
2023-01-13T16:56:23.166Z,43.28
2023-01-13T16:58:51.031Z,42.92
2023-01-13T17:01:21.108Z,49.58
2023-01-13T17:03:49.282Z,41.00
2023-01-13T17:06:18.221Z,37.67
2023-01-13T17:08:44.911Z,47.47
2023-01-13T17:11:12.376Z,52.17
2023-01-13T17:13:39.545Z,44.33
2023-01-13T17:16:06.907Z,47.33
2023-01-13T17:18:33.472Z,46.55
2023-01-13T17:21:01.510Z,34.85
2023-01-13T17:23:29.837Z,51.20
2023-01-13T17:25:56.534Z,46.58
2023-01-13T17:28:23.355Z,35.00
2023-01-13T17:30:49.945Z,39.05
2023-01-13T17:33:16.588Z,42.42
2023-01-13T17:35:43.152Z,42.95
2023-01-13T17:38:10.003Z,37.40
2023-01-13T17:40:37.479Z,47.28
2023-01-13T17:43:04.520Z,38.90
2023-01-13T17:45:31.192Z,34.33
2023-01-13T17:47:58.535Z,39.97
2023-01-13T17:50:27.825Z,41.20
2023-01-13T17:52:54.690Z,39.00
2023-01-13T17:55:21.353Z,43.30
2023-01-13T17:57:47.998Z,45.13
2023-01-13T18:00:15.375Z,45.00
2023-01-13T18:02:42.336Z,42.53
2023-01-13T18:05:09.439Z,39.20
2023-01-13T18:07:36.020Z,42.33
2023-01-13T18:10:02.615Z,32.83
2023-01-13T18:12:29.515Z,39.28
2023-01-13T18:14:56.164Z,47.75
2023-01-13T18:17:22.834Z,38.83
2023-01-13T18:20:07.867Z,45.88
2023-01-13T18:22:53.714Z,42.33
2023-01-13T18:25:38.909Z,52.53
2023-01-13T18:28:05.535Z,41.45
2023-01-13T18:30:32.205Z,44.08
2023-01-13T18:32:59.416Z,42.13
2023-01-13T18:35:26.072Z,48.45
2023-01-13T18:37:52.811Z,59.97
2023-01-13T18:40:19.619Z,52.92
2023-01-13T18:42:55.200Z,36.45
2023-01-13T18:45:25.670Z,45.85
2023-01-13T18:47:53.674Z,50.45
2023-01-13T18:50:20.532Z,41.83
2023-01-13T18:52:47.207Z,44.88
2023-01-13T18:55:13.923Z,53.25
2023-01-13T18:57:40.650Z,38.85
2023-01-13T19:00:13.923Z,32.58
2023-01-13T19:02:40.837Z,45.60
2023-01-13T19:05:08.433Z,53.88
2023-01-13T19:07:36.111Z,55.30
2023-01-13T19:10:04.563Z,54.38
2023-01-13T19:12:31.363Z,56.70
2023-01-13T19:14:59.015Z,43.85
2023-01-13T19:17:28.028Z,37.20
2023-01-13T19:19:57.462Z,45.40
2023-01-13T19:22:30.424Z,40.90
2023-01-13T19:24:57.677Z,34.88
2023-01-13T19:27:25.419Z,43.33
2023-01-13T19:29:53.813Z,43.35
2023-01-13T19:32:22.079Z,46.28
2023-01-13T19:34:50.792Z,32.00
2023-01-13T19:37:18.923Z,37.47
2023-01-13T19:39:45.679Z,37.22
2023-01-13T19:42:31.920Z,36.85
2023-01-13T19:45:17.293Z,36.75
2023-01-13T19:47:45.614Z,44.03
2023-01-13T19:50:13.829Z,46.20
2023-01-13T19:52:42.226Z,45.05
2023-01-13T19:55:09.955Z,47.58
2023-01-13T19:57:38.267Z,47.33
2023-01-13T20:00:11.048Z,68.90
2023-01-13T20:02:38.709Z,52.30
2023-01-13T20:05:07.983Z,54.67
2023-01-13T20:07:35.276Z,49.53
2023-01-13T20:10:02.445Z,41.15
2023-01-13T20:12:30.004Z,40.95
2023-01-13T20:14:56.824Z,36.75
2023-01-13T20:17:25.545Z,38.13
2023-01-13T20:19:53.237Z,33.38
2023-01-13T20:22:20.271Z,33.35
2023-01-13T20:24:46.880Z,36.38
2023-01-13T20:27:13.747Z,34.65
2023-01-13T20:29:40.807Z,41.05
2023-01-13T20:32:07.501Z,40.08
2023-01-13T20:34:34.180Z,46.40
2023-01-13T20:37:00.881Z,39.35
2023-01-13T20:39:28.146Z,41.63
2023-01-13T20:42:14.508Z,34.47
2023-01-13T20:44:46.007Z,26.20
2023-01-13T20:47:14.559Z,38.28
2023-01-13T20:49:41.333Z,36.17
2023-01-13T20:52:15.037Z,27.60
2023-01-13T20:54:42.031Z,29.70
2023-01-13T20:57:10.551Z,31.52
2023-01-13T20:59:38.457Z,31.20
2023-01-13T21:02:35.852Z,33.60
2023-01-13T21:05:02.695Z,32.10
2023-01-13T21:07:29.639Z,35.50
2023-01-13T21:09:57.393Z,36.65
2023-01-13T21:12:51.348Z,26.38
2023-01-13T21:15:18.286Z,30.63
2023-01-13T21:18:06.176Z,27.98
2023-01-13T21:23:18.159Z,39.33
2023-01-13T21:25:45.025Z,38.85
2023-01-13T21:28:13.542Z,31.02
2023-01-13T21:30:40.505Z,29.20
2023-01-13T21:35:48.166Z,31.38
2023-01-13T21:38:40.684Z,29.52
2023-01-13T21:41:09.055Z,36.58
2023-01-13T21:44:11.293Z,33.47
2023-01-13T21:46:56.479Z,35.38
2023-01-13T21:49:27.155Z,28.63
2023-01-13T21:51:56.094Z,28.70
2023-01-13T21:54:23.157Z,24.83
2023-01-13T21:56:50.019Z,32.45
2023-01-13T21:59:16.964Z,27.85
2023-01-13T22:02:24.031Z,35.22
2023-01-13T22:04:30.532Z,39.45
2023-01-13T22:06:59.908Z,32.95
2023-01-13T22:09:26.798Z,25.55
2023-01-13T22:11:53.442Z,33.70
2023-01-13T22:14:20.020Z,28.02
2023-01-13T22:16:50.154Z,25.13
2023-01-13T22:19:18.289Z,25.98
2023-01-13T22:21:44.921Z,28.45
2023-01-13T22:24:11.809Z,24.13
2023-01-13T22:26:38.605Z,24.45
2023-01-13T22:29:05.216Z,22.80
2023-01-13T22:31:32.301Z,25.02
2023-01-13T22:34:00.227Z,25.00
2023-01-13T22:36:26.864Z,23.90
2023-01-13T22:38:55.853Z,18.58
2023-01-13T22:41:22.953Z,25.90
2023-01-13T22:43:49.931Z,18.38
2023-01-13T22:46:17.316Z,16.20
2023-01-13T22:48:46.053Z,23.15
2023-01-13T22:51:15.774Z,22.67
2023-01-13T22:53:42.750Z,35.35
2023-01-13T22:56:17.034Z,27.20
2023-01-13T22:58:44.288Z,21.20
2023-01-13T23:01:16.268Z,31.73
2023-01-13T23:03:46.436Z,25.55
2023-01-13T23:06:13.743Z,23.50
2023-01-13T23:08:40.532Z,31.40
2023-01-13T23:11:09.672Z,30.80
2023-01-13T23:16:11.497Z,26.33
2023-01-13T23:18:38.667Z,40.95
2023-01-13T23:21:11.368Z,21.98
2023-01-13T23:23:38.612Z,26.92
2023-01-13T23:26:06.535Z,32.63
2023-01-13T23:28:34.845Z,40.03
